Time;durP1;ratioP1;P1;durP2;ratioP2;P2;SDS_P1;SDS_P2;PMS_P1;PMS_P2;Temp;Humidity;BMP_temperature;BMP_pressure;BME280_temperature;BME280_humidity;BME280_pressure;Samples;Min_cycle;Max_cycle;Signal;HPM_P1;HPM_P2
2021/12/10 14:10:21;;;;;;;11.93;8.20;;;4.20;99.90;;;;;;6320266;22;1325683;-92
2021/12/10 14:12:47;;;;;;;12.02;8.68;;;4.30;99.90;;;;;;6265216;22;20439;-93
2021/12/10 14:15:54;;;;;;;14.98;8.52;;;4.10;99.90;;;;;;6263597;22;20054;-95
2021/12/10 14:18:30;;;;;;;12.45;8.32;;;4.00;99.90;;;;;;6262245;22;20012;-95
2021/12/10 14:21:05;;;;;;;13.25;9.18;;;3.90;99.90;;;;;;6262130;22;20023;-90
2021/12/10 14:23:52;;;;;;;13.23;9.13;;;3.90;99.90;;;;;;6259974;22;20016;-94
2021/12/10 14:26:25;;;;;;;12.77;8.77;;;3.80;99.90;;;;;;6259302;22;20019;-96
2021/12/10 14:29:01;;;;;;;13.80;9.50;;;3.70;99.90;;;;;;6259431;22;20015;-91
2021/12/10 14:31:36;;;;;;;12.95;9.10;;;3.60;99.90;;;;;;6259760;22;20106;-93
2021/12/10 14:34:11;;;;;;;13.20;9.20;;;3.60;99.90;;;;;;6260067;22;20043;-92
2021/12/10 14:36:37;;;;;;;17.42;9.30;;;3.60;99.90;;;;;;6259733;22;20015;-95
2021/12/10 14:39:03;;;;;;;11.43;8.70;;;3.50;99.90;;;;;;6260538;22;20103;-93
2021/12/10 14:41:45;;;;;;;14.77;8.17;;;3.40;99.90;;;;;;6260557;22;20016;-95
2021/12/10 14:44:35;;;;;;;13.93;8.82;;;3.40;99.90;;;;;;6259604;22;20072;-90
2021/12/10 14:47:20;;;;;;;13.13;8.68;;;3.30;99.90;;;;;;6259657;22;20011;-96
2021/12/10 14:50:01;;;;;;;13.80;8.40;;;3.30;99.90;;;;;;6259794;22;20102;-96
2021/12/10 14:52:29;;;;;;;12.55;8.50;;;3.20;99.90;;;;;;6260880;22;20020;-95
2021/12/10 14:55:02;;;;;;;15.18;8.93;;;3.20;99.90;;;;;;6262515;22;20065;-93
2021/12/10 14:57:47;;;;;;;12.90;9.05;;;3.20;99.90;;;;;;6260852;22;20090;-92
2021/12/10 15:00:40;;;;;;;11.95;8.60;;;3.20;99.90;;;;;;6262347;22;20019;-96
2021/12/10 15:03:21;;;;;;;13.00;8.45;;;3.20;99.90;;;;;;6268531;22;20026;-96
2021/12/10 15:05:59;;;;;;;13.02;9.00;;;3.20;99.90;;;;;;6267886;22;20101;-92
2021/12/10 15:08:53;;;;;;;12.25;8.52;;;3.10;99.90;;;;;;6263172;22;20449;-95
2021/12/10 15:11:40;;;;;;;13.65;7.80;;;3.10;99.90;;;;;;6255765;22;20022;-96
2021/12/10 15:14:53;;;;;;;11.95;8.35;;;3.00;99.90;;;;;;6259193;22;20571;-91
2021/12/10 15:17:19;;;;;;;15.13;8.40;;;2.90;99.90;;;;;;6147250;23;20039;-91
2021/12/10 15:19:48;;;;;;;15.50;8.70;;;2.90;99.90;;;;;;6144677;23;20020;-90
2021/12/10 15:22:19;;;;;;;11.80;8.40;;;2.90;99.90;;;;;;6207145;22;20011;-94
2021/12/10 15:24:52;;;;;;;11.57;8.50;;;2.80;99.90;;;;;;6256443;22;20020;-91
2021/12/10 15:27:25;;;;;;;14.35;8.38;;;2.80;99.90;;;;;;6258786;22;20011;-94
2021/12/10 15:30:00;;;;;;;12.93;8.90;;;2.80;99.90;;;;;;6259771;22;20054;-95
2021/12/10 15:32:37;;;;;;;12.23;8.63;;;2.80;99.90;;;;;;6260298;22;20023;-94
2021/12/10 15:35:14;;;;;;;13.27;9.18;;;2.70;99.90;;;;;;6255321;22;20022;-91
2021/12/10 15:37:45;;;;;;;11.98;8.82;;;2.60;99.90;;;;;;6255853;22;20019;-95
2021/12/10 15:40:33;;;;;;;12.95;9.07;;;2.60;99.90;;;;;;6254482;22;20095;-91
2021/12/10 15:43:04;;;;;;;;;;;2.60;99.90;;;;;;6253077;22;20011;-96
2021/12/10 15:45:32;;;;;;;16.92;9.60;;;2.50;99.90;;;;;;6251768;22;19918;-92
2021/12/10 15:47:58;;;;;;;13.40;9.07;;;2.50;99.90;;;;;;6253825;22;20508;-94
2021/12/10 15:50:35;;;;;;;15.73;9.87;;;2.50;99.90;;;;;;6256122;22;20015;-91
2021/12/10 15:53:09;;;;;;;13.47;9.87;;;2.50;99.90;;;;;;6257119;22;20253;-94
2021/12/10 15:55:37;;;;;;;16.90;10.38;;;2.50;99.90;;;;;;6254478;22;20067;-90
2021/12/10 15:58:04;;;;;;;15.82;9.63;;;2.50;99.90;;;;;;6253817;22;20016;-91
2021/12/10 16:00:32;;;;;;;15.82;9.95;;;2.50;99.90;;;;;;6252966;22;20007;-90
2021/12/10 16:02:59;;;;;;;16.80;10.88;;;2.60;99.90;;;;;;6252343;22;20016;-92
2021/12/10 16:05:26;;;;;;;14.70;10.13;;;2.60;99.90;;;;;;6252467;22;20015;-90
2021/12/10 16:07:56;;;;;;;16.83;10.05;;;2.60;99.90;;;;;;6252648;22;20016;-90
2021/12/10 16:10:30;;;;;;;14.38;9.77;;;2.60;99.90;;;;;;6252587;22;20016;-87
2021/12/10 16:13:02;;;;;;;15.30;10.38;;;2.70;99.90;;;;;;6251877;22;20027;-89
2021/12/10 16:15:42;;;;;;;16.23;9.57;;;2.70;99.90;;;;;;6251314;22;20046;-89
2021/12/10 16:18:20;;;;;;;;;;;;;;;;;;;;;
2021/12/10 16:21:16;;;;;;;15.32;9.63;;;2.60;99.90;;;;;;6276054;22;20020;-95
2021/12/10 16:23:55;;;;;;;15.15;11.13;;;2.60;99.90;;;;;;6250730;22;20015;-92
2021/12/10 16:26:24;;;;;;;14.85;9.90;;;2.60;99.90;;;;;;6251049;22;20020;-93
2021/12/10 16:28:57;;;;;;;14.70;10.70;;;2.60;99.90;;;;;;6251035;22;20016;-93
2021/12/10 16:31:25;;;;;;;15.60;9.75;;;2.60;99.90;;;;;;6256601;22;20077;-90
2021/12/10 16:33:55;;;;;;;12.32;9.57;;;2.50;99.90;;;;;;6230170;22;20058;-91
2021/12/10 16:36:21;;;;;;;14.20;9.55;;;2.50;99.90;;;;;;6251419;22;20026;-88
2021/12/10 16:38:53;;;;;;;14.73;9.20;;;2.50;99.90;;;;;;6251782;22;20098;-92
2021/12/10 16:41:24;;;;;;;14.57;10.57;;;2.40;99.90;;;;;;6250983;22;20094;-90
2021/12/10 16:43:58;;;;;;;15.40;10.05;;;2.40;99.90;;;;;;6251198;22;20016;-90
2021/12/10 16:46:27;;;;;;;18.05;10.32;;;2.40;99.90;;;;;;6249026;22;20015;-90
2021/12/10 16:48:57;;;;;;;18.60;11.65;;;2.30;99.90;;;;;;6248800;22;20048;-89
2021/12/10 16:51:28;;;;;;;17.70;12.07;;;2.30;99.90;;;;;;6249419;22;20027;-91
2021/12/10 16:54:18;;;;;;;23.63;12.18;;;2.30;99.90;;;;;;6250183;22;20023;-90
2021/12/10 16:56:51;;;;;;;22.50;13.88;;;2.30;99.90;;;;;;6264625;22;20015;-89
2021/12/10 16:59:18;;;;;;;20.73;13.77;;;2.30;99.90;;;;;;6276042;22;20024;-89
2021/12/10 17:01:53;;;;;;;24.60;14.82;;;2.30;99.90;;;;;;6250831;22;20023;-90
2021/12/10 17:04:21;;;;;;;22.95;14.98;;;2.30;99.90;;;;;;6250866;22;20020;-90
2021/12/10 17:07:11;;;;;;;18.27;13.68;;;2.30;99.90;;;;;;6250771;22;20341;-92
2021/12/10 17:09:41;;;;;;;21.85;16.52;;;2.20;99.90;;;;;;6251882;22;20015;-88
2021/12/10 17:12:12;;;;;;;21.25;15.27;;;2.20;99.90;;;;;;6254071;22;20034;-88
2021/12/10 17:14:44;;;;;;;18.63;14.38;;;2.10;99.90;;;;;;6256846;22;20053;-88
2021/12/10 17:17:18;;;;;;;19.52;14.13;;;2.10;99.90;;;;;;6283457;22;20012;-88
2021/12/10 17:19:49;;;;;;;17.05;12.90;;;2.10;99.90;;;;;;6256902;22;20456;-88
2021/12/10 17:22:25;;;;;;;21.52;14.65;;;2.10;99.90;;;;;;6257749;22;20022;-88
2021/12/10 17:35:19;;;;;;;23.77;14.30;;;2.00;99.90;;;;;;6232681;22;20025;-95
2021/12/10 17:37:45;;;;;;;25.30;16.00;;;2.00;99.90;;;;;;6189630;23;20087;-94
2021/12/10 17:40:51;;;;;;;25.20;17.02;;;2.00;99.90;;;;;;6165099;23;20019;-94
2021/12/10 17:46:57;;;;;;;24.55;15.93;;;2.00;99.90;;;;;;6190319;23;20446;-96
2021/12/10 17:49:26;;;;;;;23.38;15.90;;;2.00;99.90;;;;;;6165278;23;20450;-94
2021/12/10 17:51:53;;;;;;;21.70;14.75;;;2.00;99.90;;;;;;6190150;23;20022;-95
2021/12/10 17:54:43;;;;;;;;;;;2.00;99.90;;;;;;6165467;23;20052;-96
2021/12/10 17:57:32;;;;;;;19.42;14.93;;;1.90;99.90;;;;;;6190735;23;20293;-95
2021/12/10 18:00:01;;;;;;;20.05;14.38;;;2.00;99.90;;;;;;6183570;23;20028;-92
2021/12/10 18:02:36;;;;;;;21.05;14.93;;;2.00;99.90;;;;;;6186285;23;20027;-94
2021/12/10 18:05:07;;;;;;;24.88;15.80;;;2.00;99.90;;;;;;6186108;23;20052;-94
2021/12/10 18:07:35;;;;;;;24.80;15.70;;;2.00;99.90;;;;;;6186059;23;20025;-90
2021/12/10 18:10:06;;;;;;;21.20;16.08;;;1.90;99.90;;;;;;6182911;23;20074;-95
2021/12/10 18:12:38;;;;;;;22.40;16.00;;;1.90;99.90;;;;;;6165061;23;20017;-94
2021/12/10 18:15:15;;;;;;;19.58;14.77;;;1.90;99.90;;;;;;6165458;23;20350;-95
2021/12/10 18:17:44;;;;;;;26.23;16.25;;;1.90;99.90;;;;;;6165061;23;20048;-94
2021/12/10 18:20:18;;;;;;;20.02;14.43;;;1.90;99.90;;;;;;6165086;23;20056;-94
2021/12/10 18:22:53;;;;;;;19.58;13.95;;;1.90;99.90;;;;;;6164784;23;20055;-95
2021/12/10 18:25:26;;;;;;;19.05;13.55;;;2.00;99.90;;;;;;6164968;23;20021;-91
2021/12/10 18:27:53;;;;;;;20.55;14.93;;;1.90;99.90;;;;;;6164871;23;20343;-92
2021/12/10 18:30:21;;;;;;;18.23;14.27;;;2.00;99.90;;;;;;6164600;23;20059;-93
2021/12/10 18:32:49;;;;;;;20.67;14.15;;;2.00;99.90;;;;;;6164997;23;20034;-92
2021/12/10 18:35:24;;;;;;;21.60;16.58;;;2.00;99.90;;;;;;6188528;23;20319;-94
2021/12/10 18:37:52;;;;;;;19.48;14.35;;;2.00;99.90;;;;;;6222223;23;20020;-95
2021/12/10 18:40:25;;;;;;;17.30;13.57;;;2.00;99.90;;;;;;6222507;23;20070;-92
2021/12/10 18:43:01;;;;;;;21.85;14.77;;;1.90;99.90;;;;;;6221219;23;20040;-91
2021/12/10 18:45:52;;;;;;;18.20;13.27;;;1.90;99.90;;;;;;6220785;23;20358;-88
2021/12/10 18:48:23;;;;;;;21.75;14.48;;;1.90;99.90;;;;;;6222938;23;20056;-91
2021/12/10 18:50:54;;;;;;;20.30;14.65;;;1.90;99.90;;;;;;6222994;23;20020;-91
2021/12/10 18:53:23;;;;;;;22.30;15.05;;;1.90;99.90;;;;;;6221258;23;20048;-92
2021/12/10 18:55:53;;;;;;;21.80;15.07;;;1.90;99.90;;;;;;6219497;23;20312;-92
2021/12/10 18:58:23;;;;;;;18.77;14.43;;;1.90;99.90;;;;;;6219719;23;20012;-92
2021/12/10 19:00:57;;;;;;;21.25;16.20;;;1.80;99.90;;;;;;6221645;23;20078;-92
2021/12/10 19:03:28;;;;;;;23.55;15.95;;;1.80;99.90;;;;;;6221052;23;20491;-92
2021/12/10 19:06:00;;;;;;;27.08;16.05;;;1.90;99.90;;;;;;6220181;23;20051;-90
2021/12/10 19:08:41;;;;;;;25.15;18.13;;;1.80;99.90;;;;;;6220329;23;20023;-90
2021/12/10 19:11:14;;;;;;;28.23;19.48;;;1.80;99.90;;;;;;6220614;23;20016;-89
2021/12/10 19:13:44;;;;;;;26.60;18.98;;;1.80;99.90;;;;;;6221091;23;20066;-92
2021/12/10 19:16:22;;;;;;;24.30;17.60;;;1.80;99.90;;;;;;6222675;23;20058;-89
2021/12/10 19:19:03;;;;;;;24.48;18.52;;;1.70;99.90;;;;;;6229502;23;20024;-90
2021/12/10 19:21:35;;;;;;;19.60;16.08;;;1.70;99.90;;;;;;6224396;23;20016;-90
2021/12/10 19:24:13;;;;;;;19.42;13.43;;;1.70;99.90;;;;;;6223977;23;20027;-89
2021/12/10 19:26:45;;;;;;;17.80;12.75;;;1.60;99.90;;;;;;6201953;23;20052;-88
2021/12/10 19:29:25;;;;;;;18.33;11.98;;;1.50;99.90;;;;;;6222280;23;20391;-91
2021/12/10 19:31:57;;;;;;;20.98;12.48;;;1.50;99.90;;;;;;6246944;23;20054;-88
2021/12/10 19:34:32;;;;;;;16.23;11.27;;;1.40;99.90;;;;;;6219379;23;20016;-93
2021/12/10 19:37:03;;;;;;;18.35;12.07;;;1.40;99.90;;;;;;6169540;23;20020;-90
2021/12/10 19:39:42;;;;;;;15.45;11.57;;;1.30;99.90;;;;;;6178215;23;20078;-91
2021/12/10 19:42:24;;;;;;;16.48;11.45;;;1.30;99.90;;;;;;6170389;23;20017;-90
2021/12/10 19:44:59;;;;;;;18.33;12.65;;;1.30;99.90;;;;;;6175685;23;20087;-92
2021/12/10 19:47:31;;;;;;;17.50;12.27;;;1.20;99.90;;;;;;6178051;23;20095;-92
2021/12/10 19:50:12;;;;;;;17.38;12.18;;;1.20;99.90;;;;;;6170018;23;20092;-91
2021/12/10 19:52:48;;;;;;;13.38;10.00;;;1.10;99.90;;;;;;6168749;23;20024;-90
2021/12/10 19:55:35;;;;;;;15.05;10.48;;;1.10;99.90;;;;;;6168191;23;20012;-91
2021/12/10 19:58:04;;;;;;;20.00;12.88;;;1.00;99.90;;;;;;6166737;23;20024;-91
2021/12/10 20:00:45;;;;;;;18.77;13.05;;;1.10;99.90;;;;;;6166538;23;20346;-91
2021/12/10 20:03:19;;;;;;;16.02;12.10;;;1.00;99.90;;;;;;6166039;23;20082;-90
2021/12/10 20:06:04;;;;;;;18.40;12.48;;;1.00;99.90;;;;;;6166474;23;20458;-91
2021/12/10 20:08:50;;;;;;;18.13;11.57;;;1.00;99.90;;;;;;6166930;23;20017;-89
2021/12/10 20:11:19;;;;;;;22.75;14.68;;;1.00;99.90;;;;;;6166196;23;20020;-91
2021/12/10 20:14:10;;;;;;;19.73;14.60;;;1.00;99.90;;;;;;6167052;23;20091;-92
2021/12/10 20:16:50;;;;;;;18.73;13.75;;;1.00;99.90;;;;;;6166624;23;20017;-91
2021/12/10 20:19:39;;;;;;;25.63;18.77;;;1.00;99.90;;;;;;6166344;23;20079;-91
2021/12/10 20:22:26;;;;;;;21.88;14.77;;;0.90;99.90;;;;;;6164708;23;20013;-89
2021/12/10 20:24:56;;;;;;;19.35;14.48;;;0.90;99.90;;;;;;6165851;23;20055;-91
2021/12/10 20:27:34;;;;;;;19.65;14.30;;;0.90;99.90;;;;;;6165795;23;20074;-90
2021/12/10 20:30:19;;;;;;;20.27;14.88;;;1.00;99.90;;;;;;6165768;23;20016;-90
2021/12/10 20:33:09;;;;;;;19.05;14.88;;;0.90;99.90;;;;;;6165924;23;20021;-89
2021/12/10 20:35:56;;;;;;;20.13;15.23;;;0.90;99.90;;;;;;6197302;23;20016;-92
2021/12/10 20:38:34;;;;;;;17.73;12.43;;;0.90;99.90;;;;;;6246389;23;20035;-89
2021/12/10 20:41:06;;;;;;;11.77;9.30;;;0.90;99.90;;;;;;6221226;23;20054;-91
2021/12/10 20:43:39;;;;;;;12.77;9.63;;;0.90;99.90;;;;;;6220431;23;20052;-90
2021/12/10 20:46:19;;;;;;;10.05;7.35;;;0.80;99.90;;;;;;6220469;23;20441;-88
2021/12/10 20:49:01;;;;;;;19.95;13.23;;;0.80;99.90;;;;;;6220577;23;20054;-89
2021/12/10 20:51:38;;;;;;;13.65;9.30;;;0.80;99.90;;;;;;6220729;23;20020;-89
2021/12/10 20:54:09;;;;;;;10.75;8.07;;;0.80;99.90;;;;;;6220531;23;20107;-90
2021/12/10 20:56:55;;;;;;;9.98;6.88;;;0.80;99.90;;;;;;6245808;23;20019;-88
2021/12/10 20:59:36;;;;;;;9.65;7.05;;;0.80;99.90;;;;;;6220351;23;20020;-89
2021/12/10 21:02:20;;;;;;;10.90;7.47;;;0.80;99.90;;;;;;6220293;23;20016;-88
2021/12/10 21:04:52;;;;;;;10.25;7.22;;;0.80;99.90;;;;;;6245406;23;20047;-89
2021/12/10 21:07:29;;;;;;;11.65;8.48;;;0.70;99.90;;;;;;6220260;23;20016;-89
2021/12/10 21:10:02;;;;;;;13.30;9.38;;;0.80;99.90;;;;;;6220201;23;20024;-89
2021/12/10 21:12:41;;;;;;;12.95;8.65;;;0.80;99.90;;;;;;6220467;23;20051;-87
2021/12/10 21:15:13;;;;;;;13.40;8.80;;;0.80;99.90;;;;;;6219989;23;20039;-89
2021/12/10 21:17:50;;;;;;;11.93;7.72;;;0.70;99.90;;;;;;6220290;23;20016;-88
2021/12/10 21:20:22;;;;;;;43.80;12.67;;;0.70;99.90;;;;;;6220393;23;20016;-90
2021/12/10 21:22:52;;;;;;;93.35;14.45;;;0.70;99.90;;;;;;6245132;23;20119;-89
2021/12/10 21:25:31;;;;;;;54.20;12.00;;;0.70;99.90;;;;;;6244976;23;20393;-88
2021/12/10 21:28:06;;;;;;;207.90;17.00;;;0.70;99.90;;;;;;6219925;23;20323;-87
2021/12/10 21:30:48;;;;;;;209.63;16.25;;;0.60;99.90;;;;;;6219830;23;20453;-87
2021/12/10 21:33:25;;;;;;;178.07;17.40;;;0.60;99.90;;;;;;6219308;23;20059;-88
2021/12/10 21:35:57;;;;;;;;;;;0.40;99.90;;;;;;6219996;23;20022;-87
2021/12/10 21:38:28;;;;;;;78.13;10.55;;;0.40;99.90;;;;;;6219523;23;20090;-87
2021/12/10 21:40:59;;;;;;;17.50;7.50;;;0.30;99.90;;;;;;6245128;23;20020;-89
2021/12/10 21:43:40;;;;;;;10.48;6.75;;;0.20;99.90;;;;;;6220156;23;20016;-88
2021/12/10 21:46:14;;;;;;;12.60;6.97;;;0.30;99.90;;;;;;6219775;23;20396;-89
2021/12/10 21:48:45;;;;;;;12.00;8.18;;;0.20;99.90;;;;;;6220088;23;20020;-89
2021/12/10 21:51:25;;;;;;;11.48;7.70;;;0.30;99.90;;;;;;6220392;23;21305;-89
2021/12/10 21:54:31;;;;;;;11.10;7.75;;;0.30;99.90;;;;;;6220083;23;20020;-88
2021/12/10 21:57:00;;;;;;;10.20;7.18;;;0.20;99.90;;;;;;6218484;23;20063;-93
2021/12/10 21:59:30;;;;;;;10.55;7.60;;;0.20;99.90;;;;;;6194682;23;20101;-88
2021/12/10 22:02:17;;;;;;;16.38;10.80;;;0.20;99.90;;;;;;6219988;23;20070;-90
2021/12/10 22:04:49;;;;;;;31.45;16.85;;;0.20;99.90;;;;;;6219876;23;20020;-89
2021/12/10 22:07:27;;;;;;;41.28;22.40;;;0.10;99.90;;;;;;6219028;23;20020;-86
2021/12/10 22:09:59;;;;;;;21.20;12.25;;;0.10;99.90;;;;;;6219029;23;20485;-88
2021/12/10 22:12:31;;;;;;;32.50;18.70;;;0.10;99.90;;;;;;6219283;23;20020;-89
2021/12/10 22:15:11;;;;;;;27.08;14.98;;;0.10;99.90;;;;;;6218591;23;20061;-90
2021/12/10 22:17:41;;;;;;;40.72;19.83;;;0.20;99.90;;;;;;6217909;23;20020;-89
2021/12/10 22:20:16;;;;;;;22.15;14.45;;;0.20;99.90;;;;;;6219154;23;20068;-91
2021/12/10 22:22:44;;;;;;;15.73;10.35;;;0.20;99.90;;;;;;6221651;23;20097;-91
2021/12/10 22:25:24;;;;;;;36.00;10.70;;;0.10;99.90;;;;;;6221477;23;20103;-91
2021/12/10 22:27:52;;;;;;;49.70;9.70;;;0.10;99.90;;;;;;6221622;23;20017;-90
2021/12/10 22:30:34;;;;;;;17.75;8.25;;;0.10;99.90;;;;;;6221716;23;20074;-92
2021/12/10 22:33:19;;;;;;;94.47;13.32;;;0.20;99.90;;;;;;6221421;23;20023;-90
2021/12/10 22:35:56;;;;;;;30.73;9.45;;;0.20;99.90;;;;;;6221176;23;20020;-90
2021/12/10 22:38:24;;;;;;;23.38;10.13;;;0.10;99.90;;;;;;6221414;23;20551;-92
2021/12/10 22:41:11;;;;;;;34.78;11.63;;;0.10;99.90;;;;;;6247062;23;20083;-90
2021/12/10 22:43:49;;;;;;;14.68;10.25;;;0.10;99.90;;;;;;6222923;23;20016;-91
2021/12/10 22:46:22;;;;;;;15.45;11.02;;;0.00;99.90;;;;;;6256290;23;20027;-90
2021/12/10 22:48:55;;;;;;;12.18;9.55;;;0.00;99.90;;;;;;6229678;23;20016;-94
2021/12/10 22:51:36;;;;;;;58.35;11.98;;;0.00;99.90;;;;;;6227733;23;20020;-91
2021/12/10 22:54:25;;;;;;;54.08;11.23;;;0.00;99.90;;;;;;6237408;23;20043;-93
2021/12/10 22:56:54;;;;;;;17.65;9.38;;;0.00;99.90;;;;;;6225658;23;20095;-91
2021/12/10 22:59:30;;;;;;;15.57;10.55;;;0.00;99.90;;;;;;6221716;23;20449;-91
2021/12/10 23:02:15;;;;;;;12.10;9.25;;;0.00;99.90;;;;;;6221787;23;20016;-93
2021/12/10 23:04:58;;;;;;;11.43;9.05;;;-0.10;99.90;;;;;;6221410;23;20035;-91
2021/12/10 23:10:14;;;;;;;12.18;10.05;;;-0.20;99.90;;;;;;6246956;23;20350;-90
2021/12/10 23:12:49;;;;;;;11.60;9.65;;;-0.20;99.90;;;;;;6221236;23;20027;-90
2021/12/10 23:15:36;;;;;;;13.77;10.65;;;-0.20;99.90;;;;;;6246436;23;20016;-89
2021/12/10 23:18:28;;;;;;;27.45;14.32;;;-0.20;99.90;;;;;;6220994;23;20020;-90
2021/12/10 23:21:16;;;;;;;36.95;17.48;;;-0.20;99.90;;;;;;6221213;23;20039;-90
2021/12/10 23:24:19;;;;;;;18.77;14.27;;;-0.20;99.90;;;;;;6221281;23;20043;-93
2021/12/10 23:27:09;;;;;;;16.73;12.90;;;-0.20;99.90;;;;;;6221117;23;20016;-91
2021/12/10 23:30:07;;;;;;;16.25;13.13;;;-0.30;99.90;;;;;;6246406;23;20095;-91
2021/12/10 23:32:59;;;;;;;20.27;14.23;;;-0.30;99.90;;;;;;6216557;23;20016;-91
2021/12/10 23:35:37;;;;;;;18.80;14.27;;;-0.30;99.90;;;;;;6221050;23;20055;-89
2021/12/10 23:38:15;;;;;;;17.33;12.98;;;-0.30;99.90;;;;;;6221549;23;20110;-90
2021/12/10 23:40:52;;;;;;;23.27;18.70;;;-0.30;99.90;;;;;;6221273;23;20023;-91
2021/12/10 23:43:31;;;;;;;22.92;17.70;;;-0.30;99.90;;;;;;6221409;23;20050;-91
2021/12/10 23:46:07;;;;;;;15.43;13.02;;;-0.40;99.90;;;;;;6221119;23;20070;-88
2021/12/10 23:48:53;;;;;;;17.27;14.35;;;-0.40;99.90;;;;;;6246119;23;20062;-87
2021/12/10 23:51:30;;;;;;;19.13;14.77;;;-0.40;99.90;;;;;;6220920;23;20281;-87
2021/12/10 23:53:56;;;;;;;36.25;16.33;;;-0.40;99.90;;;;;;6220971;23;20015;-89
2021/12/10 23:56:24;;;;;;;21.13;16.92;;;-0.40;99.90;;;;;;6220756;23;20499;-88
2021/12/10 23:58:54;;;;;;;38.58;17.40;;;-0.40;99.90;;;;;;6220669;23;20069;-87
